sensor_id;sensor_type;location;lat;lon;timestamp;temperature;humidity
13115;DHT22;6623;52.120;8.660;2024-02-23T00:01:45;21.70;46.70
13115;DHT22;6623;52.120;8.660;2024-02-23T00:04:11;21.70;46.70
13115;DHT22;6623;52.120;8.660;2024-02-23T00:06:37;21.70;46.70
13115;DHT22;6623;52.120;8.660;2024-02-23T00:09:02;21.70;46.70
13115;DHT22;6623;52.120;8.660;2024-02-23T00:11:28;21.70;46.70
13115;DHT22;6623;52.120;8.660;2024-02-23T00:13:54;21.70;46.70
13115;DHT22;6623;52.120;8.660;2024-02-23T00:16:20;21.70;46.70
13115;DHT22;6623;52.120;8.660;2024-02-23T00:18:45;21.60;46.60
13115;DHT22;6623;52.120;8.660;2024-02-23T00:21:11;21.70;46.70
13115;DHT22;6623;52.120;8.660;2024-02-23T00:23:36;21.70;46.70
13115;DHT22;6623;52.120;8.660;2024-02-23T00:26:02;21.60;46.60
13115;DHT22;6623;52.120;8.660;2024-02-23T00:28:27;21.60;46.60
13115;DHT22;6623;52.120;8.660;2024-02-23T00:30:53;21.60;46.60
13115;DHT22;6623;52.120;8.660;2024-02-23T00:33:18;21.60;46.60
13115;DHT22;6623;52.120;8.660;2024-02-23T00:35:44;21.60;46.60
13115;DHT22;6623;52.120;8.660;2024-02-23T00:38:09;21.60;46.60
13115;DHT22;6623;52.120;8.660;2024-02-23T00:40:35;21.60;46.60
13115;DHT22;6623;52.120;8.660;2024-02-23T00:43:00;21.60;46.60
13115;DHT22;6623;52.120;8.660;2024-02-23T00:45:26;21.60;46.60
13115;DHT22;6623;52.120;8.660;2024-02-23T00:47:52;21.60;46.60
13115;DHT22;6623;52.120;8.660;2024-02-23T00:50:17;21.60;46.60
13115;DHT22;6623;52.120;8.660;2024-02-23T00:52:43;21.50;46.50
13115;DHT22;6623;52.120;8.660;2024-02-23T00:55:08;21.60;46.60
13115;DHT22;6623;52.120;8.660;2024-02-23T00:57:38;21.50;46.50
13115;DHT22;6623;52.120;8.660;2024-02-23T01:00:04;21.50;46.50
13115;DHT22;6623;52.120;8.660;2024-02-23T01:02:34;21.50;46.50
13115;DHT22;6623;52.120;8.660;2024-02-23T01:05:00;21.50;46.50
13115;DHT22;6623;52.120;8.660;2024-02-23T01:07:25;21.50;46.50
13115;DHT22;6623;52.120;8.660;2024-02-23T01:09:51;21.50;46.50
13115;DHT22;6623;52.120;8.660;2024-02-23T01:12:17;21.50;46.50
13115;DHT22;6623;52.120;8.660;2024-02-23T01:14:42;21.50;46.50
13115;DHT22;6623;52.120;8.660;2024-02-23T01:17:08;21.50;46.50
13115;DHT22;6623;52.120;8.660;2024-02-23T01:19:33;21.50;46.50
13115;DHT22;6623;52.120;8.660;2024-02-23T01:21:59;21.50;46.50
13115;DHT22;6623;52.120;8.660;2024-02-23T01:24:28;21.50;46.50
13115;DHT22;6623;52.120;8.660;2024-02-23T01:26:55;21.40;46.40
13115;DHT22;6623;52.120;8.660;2024-02-23T01:29:21;21.40;46.40
13115;DHT22;6623;52.120;8.660;2024-02-23T01:31:48;21.40;46.40
13115;DHT22;6623;52.120;8.660;2024-02-23T01:34:13;21.40;46.40
13115;DHT22;6623;52.120;8.660;2024-02-23T01:36:39;21.40;46.40
13115;DHT22;6623;52.120;8.660;2024-02-23T01:39:04;21.40;46.40
13115;DHT22;6623;52.120;8.660;2024-02-23T01:41:30;21.40;46.40
13115;DHT22;6623;52.120;8.660;2024-02-23T01:43:55;21.40;46.40
13115;DHT22;6623;52.120;8.660;2024-02-23T01:46:21;21.40;46.30
13115;DHT22;6623;52.120;8.660;2024-02-23T01:48:47;21.40;46.40
13115;DHT22;6623;52.120;8.660;2024-02-23T01:51:12;21.40;46.40
13115;DHT22;6623;52.120;8.660;2024-02-23T01:53:38;21.40;46.30
13115;DHT22;6623;52.120;8.660;2024-02-23T01:56:04;21.40;46.30
13115;DHT22;6623;52.120;8.660;2024-02-23T01:58:33;21.30;46.30
13115;DHT22;6623;52.120;8.660;2024-02-23T02:01:00;21.40;46.30
13115;DHT22;6623;52.120;8.660;2024-02-23T02:03:26;21.30;46.30
13115;DHT22;6623;52.120;8.660;2024-02-23T02:05:53;21.30;46.30
13115;DHT22;6623;52.120;8.660;2024-02-23T02:08:19;21.30;46.20
13115;DHT22;6623;52.120;8.660;2024-02-23T02:10:45;21.30;46.30
13115;DHT22;6623;52.120;8.660;2024-02-23T02:13:11;21.30;46.20
13115;DHT22;6623;52.120;8.660;2024-02-23T02:15:37;21.30;46.20
13115;DHT22;6623;52.120;8.660;2024-02-23T02:18:03;21.30;46.20
13115;DHT22;6623;52.120;8.660;2024-02-23T02:20:32;21.30;46.20
13115;DHT22;6623;52.120;8.660;2024-02-23T02:22:58;21.30;46.20
13115;DHT22;6623;52.120;8.660;2024-02-23T02:25:23;21.30;46.20
13115;DHT22;6623;52.120;8.660;2024-02-23T02:27:49;21.30;46.20
13115;DHT22;6623;52.120;8.660;2024-02-23T02:30:14;21.30;46.20
13115;DHT22;6623;52.120;8.660;2024-02-23T02:32:40;21.30;46.20
13115;DHT22;6623;52.120;8.660;2024-02-23T02:35:06;21.30;46.20
13115;DHT22;6623;52.120;8.660;2024-02-23T02:37:31;21.30;46.20
13115;DHT22;6623;52.120;8.660;2024-02-23T02:39:57;21.30;46.20
13115;DHT22;6623;52.120;8.660;2024-02-23T02:42:22;21.30;46.20
13115;DHT22;6623;52.120;8.660;2024-02-23T02:44:48;21.20;46.10
13115;DHT22;6623;52.120;8.660;2024-02-23T02:47:13;21.30;46.20
13115;DHT22;6623;52.120;8.660;2024-02-23T02:49:39;21.30;46.20
13115;DHT22;6623;52.120;8.660;2024-02-23T02:52:05;21.30;46.20
13115;DHT22;6623;52.120;8.660;2024-02-23T02:54:31;21.30;46.20
13115;DHT22;6623;52.120;8.660;2024-02-23T02:56:56;21.20;46.10
13115;DHT22;6623;52.120;8.660;2024-02-23T02:59:23;21.30;46.10
13115;DHT22;6623;52.120;8.660;2024-02-23T03:01:48;21.20;46.10
13115;DHT22;6623;52.120;8.660;2024-02-23T03:04:14;21.30;46.10
13115;DHT22;6623;52.120;8.660;2024-02-23T03:06:39;21.20;46.10
13115;DHT22;6623;52.120;8.660;2024-02-23T03:09:05;21.20;46.70
13115;DHT22;6623;52.120;8.660;2024-02-23T03:11:31;21.30;46.10
13115;DHT22;6623;52.120;8.660;2024-02-23T03:13:56;21.20;46.00
13115;DHT22;6623;52.120;8.660;2024-02-23T03:16:22;21.20;46.10
13115;DHT22;6623;52.120;8.660;2024-02-23T03:18:55;21.20;46.70
13115;DHT22;6623;52.120;8.660;2024-02-23T03:21:21;21.20;46.00
13115;DHT22;6623;52.120;8.660;2024-02-23T03:23:46;21.20;46.10
13115;DHT22;6623;52.120;8.660;2024-02-23T03:26:12;21.20;46.00
13115;DHT22;6623;52.120;8.660;2024-02-23T03:28:37;21.20;46.00
13115;DHT22;6623;52.120;8.660;2024-02-23T03:31:03;21.20;46.10
13115;DHT22;6623;52.120;8.660;2024-02-23T03:33:28;21.20;46.00
13115;DHT22;6623;52.120;8.660;2024-02-23T03:35:54;21.20;46.00
13115;DHT22;6623;52.120;8.660;2024-02-23T03:38:20;21.20;46.00
13115;DHT22;6623;52.120;8.660;2024-02-23T03:40:46;21.20;46.00
13115;DHT22;6623;52.120;8.660;2024-02-23T03:43:11;21.20;46.00
13115;DHT22;6623;52.120;8.660;2024-02-23T03:45:37;21.20;46.00
13115;DHT22;6623;52.120;8.660;2024-02-23T03:48:04;21.20;46.00
13115;DHT22;6623;52.120;8.660;2024-02-23T03:50:30;21.20;46.00
13115;DHT22;6623;52.120;8.660;2024-02-23T03:52:56;21.20;46.00
13115;DHT22;6623;52.120;8.660;2024-02-23T03:55:21;21.20;46.00
13115;DHT22;6623;52.120;8.660;2024-02-23T03:57:47;21.20;46.00
13115;DHT22;6623;52.120;8.660;2024-02-23T04:00:13;21.20;46.00
13115;DHT22;6623;52.120;8.660;2024-02-23T04:02:39;21.20;46.00
13115;DHT22;6623;52.120;8.660;2024-02-23T04:05:05;21.10;46.00
13115;DHT22;6623;52.120;8.660;2024-02-23T04:07:31;21.20;46.00
13115;DHT22;6623;52.120;8.660;2024-02-23T04:09:56;21.20;46.00
13115;DHT22;6623;52.120;8.660;2024-02-23T04:12:22;21.10;45.90
13115;DHT22;6623;52.120;8.660;2024-02-23T04:14:48;21.20;46.00
13115;DHT22;6623;52.120;8.660;2024-02-23T04:17:13;21.10;45.90
13115;DHT22;6623;52.120;8.660;2024-02-23T04:19:40;21.20;46.00
13115;DHT22;6623;52.120;8.660;2024-02-23T04:22:06;21.20;46.00
13115;DHT22;6623;52.120;8.660;2024-02-23T04:24:34;21.20;46.00
13115;DHT22;6623;52.120;8.660;2024-02-23T04:26:59;21.10;45.90
13115;DHT22;6623;52.120;8.660;2024-02-23T04:29:25;21.10;45.90
13115;DHT22;6623;52.120;8.660;2024-02-23T04:31:50;21.10;45.90
13115;DHT22;6623;52.120;8.660;2024-02-23T04:34:16;21.10;45.90
13115;DHT22;6623;52.120;8.660;2024-02-23T04:36:42;21.10;45.90
13115;DHT22;6623;52.120;8.660;2024-02-23T04:39:07;21.10;45.90
13115;DHT22;6623;52.120;8.660;2024-02-23T04:41:33;21.10;45.80
13115;DHT22;6623;52.120;8.660;2024-02-23T04:43:59;21.10;45.80
13115;DHT22;6623;52.120;8.660;2024-02-23T04:46:26;21.10;45.80
13115;DHT22;6623;52.120;8.660;2024-02-23T04:48:51;21.10;45.80
13115;DHT22;6623;52.120;8.660;2024-02-23T04:51:17;21.10;45.80
13115;DHT22;6623;52.120;8.660;2024-02-23T04:53:42;21.10;45.80
13115;DHT22;6623;52.120;8.660;2024-02-23T04:56:08;21.10;45.80
13115;DHT22;6623;52.120;8.660;2024-02-23T04:58:34;21.10;45.80
13115;DHT22;6623;52.120;8.660;2024-02-23T05:01:00;21.10;45.80
13115;DHT22;6623;52.120;8.660;2024-02-23T05:03:25;21.10;45.80
13115;DHT22;6623;52.120;8.660;2024-02-23T05:05:52;21.10;45.80
13115;DHT22;6623;52.120;8.660;2024-02-23T05:08:20;21.10;45.80
13115;DHT22;6623;52.120;8.660;2024-02-23T05:10:48;21.10;45.80
13115;DHT22;6623;52.120;8.660;2024-02-23T05:13:14;21.10;45.80
13115;DHT22;6623;52.120;8.660;2024-02-23T05:15:40;21.10;45.80
13115;DHT22;6623;52.120;8.660;2024-02-23T05:18:06;21.10;45.80
13115;DHT22;6623;52.120;8.660;2024-02-23T05:20:31;21.00;45.70
13115;DHT22;6623;52.120;8.660;2024-02-23T05:22:57;21.10;45.80
13115;DHT22;6623;52.120;8.660;2024-02-23T05:25:22;21.00;45.80
13115;DHT22;6623;52.120;8.660;2024-02-23T05:27:48;21.10;45.80
13115;DHT22;6623;52.120;8.660;2024-02-23T05:30:14;21.00;45.70
13115;DHT22;6623;52.120;8.660;2024-02-23T05:32:39;21.00;45.70
13115;DHT22;6623;52.120;8.660;2024-02-23T05:35:05;21.00;45.70
13115;DHT22;6623;52.120;8.660;2024-02-23T05:37:31;21.10;45.80
13115;DHT22;6623;52.120;8.660;2024-02-23T05:39:56;21.00;45.70
13115;DHT22;6623;52.120;8.660;2024-02-23T05:42:25;21.00;45.70
13115;DHT22;6623;52.120;8.660;2024-02-23T05:44:51;21.00;45.70
13115;DHT22;6623;52.120;8.660;2024-02-23T05:47:16;21.00;45.70
13115;DHT22;6623;52.120;8.660;2024-02-23T05:49:42;21.00;45.70
13115;DHT22;6623;52.120;8.660;2024-02-23T05:52:08;21.00;45.70
13115;DHT22;6623;52.120;8.660;2024-02-23T05:54:34;21.00;45.70
13115;DHT22;6623;52.120;8.660;2024-02-23T05:57:00;21.00;45.70
13115;DHT22;6623;52.120;8.660;2024-02-23T05:59:26;21.00;45.70
13115;DHT22;6623;52.120;8.660;2024-02-23T06:01:52;21.00;45.60
13115;DHT22;6623;52.120;8.660;2024-02-23T06:04:22;21.00;45.70
13115;DHT22;6623;52.120;8.660;2024-02-23T06:06:48;21.00;45.60
13115;DHT22;6623;52.120;8.660;2024-02-23T06:09:13;21.00;45.70
13115;DHT22;6623;52.120;8.660;2024-02-23T06:11:39;21.00;45.70
13115;DHT22;6623;52.120;8.660;2024-02-23T06:14:04;21.00;45.60
13115;DHT22;6623;52.120;8.660;2024-02-23T06:16:30;21.00;45.60
13115;DHT22;6623;52.120;8.660;2024-02-23T06:18:55;21.00;45.60
13115;DHT22;6623;52.120;8.660;2024-02-23T06:21:21;21.00;45.70
13115;DHT22;6623;52.120;8.660;2024-02-23T06:23:46;21.00;45.60
13115;DHT22;6623;52.120;8.660;2024-02-23T06:26:12;21.00;45.60
13115;DHT22;6623;52.120;8.660;2024-02-23T06:28:38;21.00;45.60
13115;DHT22;6623;52.120;8.660;2024-02-23T06:31:07;21.00;45.60
13115;DHT22;6623;52.120;8.660;2024-02-23T06:33:32;21.00;45.60
13115;DHT22;6623;52.120;8.660;2024-02-23T06:35:58;21.00;45.60
13115;DHT22;6623;52.120;8.660;2024-02-23T06:38:23;21.00;45.60
13115;DHT22;6623;52.120;8.660;2024-02-23T06:40:49;20.90;45.60
13115;DHT22;6623;52.120;8.660;2024-02-23T06:43:15;21.00;45.60
13115;DHT22;6623;52.120;8.660;2024-02-23T06:45:40;20.90;45.60
13115;DHT22;6623;52.120;8.660;2024-02-23T06:48:06;21.00;45.60
13115;DHT22;6623;52.120;8.660;2024-02-23T06:50:32;20.90;45.50
13115;DHT22;6623;52.120;8.660;2024-02-23T06:52:57;21.00;45.60
13115;DHT22;6623;52.120;8.660;2024-02-23T06:55:23;20.90;45.50
13115;DHT22;6623;52.120;8.660;2024-02-23T06:57:48;20.90;45.50
13115;DHT22;6623;52.120;8.660;2024-02-23T07:00:14;20.90;45.60
13115;DHT22;6623;52.120;8.660;2024-02-23T07:02:40;20.90;45.50
13115;DHT22;6623;52.120;8.660;2024-02-23T07:05:06;20.90;45.50
13115;DHT22;6623;52.120;8.660;2024-02-23T07:07:32;20.90;45.50
13115;DHT22;6623;52.120;8.660;2024-02-23T07:09:59;20.90;45.60
13115;DHT22;6623;52.120;8.660;2024-02-23T07:12:24;20.90;45.50
13115;DHT22;6623;52.120;8.660;2024-02-23T07:14:52;20.90;45.50
13115;DHT22;6623;52.120;8.660;2024-02-23T07:17:18;20.90;45.50
13115;DHT22;6623;52.120;8.660;2024-02-23T07:19:44;20.90;45.50
13115;DHT22;6623;52.120;8.660;2024-02-23T07:22:10;20.90;45.50
13115;DHT22;6623;52.120;8.660;2024-02-23T07:24:42;20.90;45.50
13115;DHT22;6623;52.120;8.660;2024-02-23T07:27:08;20.90;45.50
13115;DHT22;6623;52.120;8.660;2024-02-23T07:29:33;20.90;45.50
13115;DHT22;6623;52.120;8.660;2024-02-23T07:31:59;20.90;45.50
13115;DHT22;6623;52.120;8.660;2024-02-23T07:34:24;20.90;45.50
13115;DHT22;6623;52.120;8.660;2024-02-23T07:36:53;20.90;45.50
13115;DHT22;6623;52.120;8.660;2024-02-23T07:39:20;20.90;45.50
13115;DHT22;6623;52.120;8.660;2024-02-23T07:41:45;20.90;45.50
13115;DHT22;6623;52.120;8.660;2024-02-23T07:44:11;20.90;45.50
13115;DHT22;6623;52.120;8.660;2024-02-23T07:46:37;20.90;45.50
13115;DHT22;6623;52.120;8.660;2024-02-23T07:49:03;20.90;45.50
13115;DHT22;6623;52.120;8.660;2024-02-23T07:51:29;20.90;45.50
13115;DHT22;6623;52.120;8.660;2024-02-23T07:53:54;20.90;45.50
13115;DHT22;6623;52.120;8.660;2024-02-23T07:56:20;20.90;45.40
13115;DHT22;6623;52.120;8.660;2024-02-23T07:58:46;20.90;45.50
13115;DHT22;6623;52.120;8.660;2024-02-23T08:01:12;20.90;45.50
13115;DHT22;6623;52.120;8.660;2024-02-23T08:03:37;20.90;45.50
13115;DHT22;6623;52.120;8.660;2024-02-23T08:06:03;20.90;45.50
13115;DHT22;6623;52.120;8.660;2024-02-23T08:08:29;20.90;45.40
13115;DHT22;6623;52.120;8.660;2024-02-23T08:10:57;20.90;45.40
13115;DHT22;6623;52.120;8.660;2024-02-23T08:13:23;20.80;45.40
13115;DHT22;6623;52.120;8.660;2024-02-23T08:15:49;20.90;45.40
13115;DHT22;6623;52.120;8.660;2024-02-23T08:18:14;20.90;45.40
13115;DHT22;6623;52.120;8.660;2024-02-23T08:20:40;20.90;45.40
13115;DHT22;6623;52.120;8.660;2024-02-23T08:23:06;20.80;45.40
13115;DHT22;6623;52.120;8.660;2024-02-23T08:25:32;20.90;45.50
13115;DHT22;6623;52.120;8.660;2024-02-23T08:27:57;20.90;45.40
13115;DHT22;6623;52.120;8.660;2024-02-23T08:30:24;20.90;45.40
13115;DHT22;6623;52.120;8.660;2024-02-23T08:32:49;20.90;45.40
13115;DHT22;6623;52.120;8.660;2024-02-23T08:35:15;20.90;45.40
13115;DHT22;6623;52.120;8.660;2024-02-23T08:37:40;20.90;45.40
13115;DHT22;6623;52.120;8.660;2024-02-23T08:40:08;20.90;45.40
13115;DHT22;6623;52.120;8.660;2024-02-23T08:42:34;20.90;45.40
13115;DHT22;6623;52.120;8.660;2024-02-23T08:44:59;20.90;45.40
13115;DHT22;6623;52.120;8.660;2024-02-23T08:47:25;20.90;45.40
13115;DHT22;6623;52.120;8.660;2024-02-23T08:49:53;20.90;46.10
13115;DHT22;6623;52.120;8.660;2024-02-23T08:52:19;20.90;45.40
13115;DHT22;6623;52.120;8.660;2024-02-23T08:54:44;20.90;45.40
13115;DHT22;6623;52.120;8.660;2024-02-23T08:57:10;20.90;45.40
13115;DHT22;6623;52.120;8.660;2024-02-23T08:59:35;20.90;45.40
13115;DHT22;6623;52.120;8.660;2024-02-23T09:02:01;20.90;45.40
13115;DHT22;6623;52.120;8.660;2024-02-23T09:04:27;20.90;45.40
13115;DHT22;6623;52.120;8.660;2024-02-23T09:06:52;20.80;45.30
13115;DHT22;6623;52.120;8.660;2024-02-23T09:09:19;20.80;45.30
13115;DHT22;6623;52.120;8.660;2024-02-23T09:11:44;20.90;45.40
13115;DHT22;6623;52.120;8.660;2024-02-23T09:14:10;20.90;45.40
13115;DHT22;6623;52.120;8.660;2024-02-23T09:16:35;20.90;45.40
13115;DHT22;6623;52.120;8.660;2024-02-23T09:19:01;20.90;45.40
13115;DHT22;6623;52.120;8.660;2024-02-23T09:21:26;20.80;45.30
13115;DHT22;6623;52.120;8.660;2024-02-23T09:23:52;20.80;45.30
13115;DHT22;6623;52.120;8.660;2024-02-23T09:26:17;20.80;45.30
13115;DHT22;6623;52.120;8.660;2024-02-23T09:28:43;20.80;45.30
13115;DHT22;6623;52.120;8.660;2024-02-23T09:31:10;20.80;45.30
13115;DHT22;6623;52.120;8.660;2024-02-23T09:33:36;20.80;45.30
13115;DHT22;6623;52.120;8.660;2024-02-23T09:36:02;20.80;45.30
13115;DHT22;6623;52.120;8.660;2024-02-23T09:38:28;20.80;45.30
13115;DHT22;6623;52.120;8.660;2024-02-23T09:40:53;20.80;45.30
13115;DHT22;6623;52.120;8.660;2024-02-23T09:43:21;20.80;45.30
13115;DHT22;6623;52.120;8.660;2024-02-23T09:45:51;20.80;45.30
13115;DHT22;6623;52.120;8.660;2024-02-23T09:48:18;20.80;45.30
13115;DHT22;6623;52.120;8.660;2024-02-23T09:50:44;20.80;45.30
13115;DHT22;6623;52.120;8.660;2024-02-23T09:53:11;20.80;45.30
13115;DHT22;6623;52.120;8.660;2024-02-23T09:55:38;20.90;45.30
13115;DHT22;6623;52.120;8.660;2024-02-23T09:58:04;20.80;45.30
13115;DHT22;6623;52.120;8.660;2024-02-23T10:00:32;20.80;45.30
13115;DHT22;6623;52.120;8.660;2024-02-23T10:02:58;20.80;45.30
13115;DHT22;6623;52.120;8.660;2024-02-23T10:05:30;20.80;45.30
13115;DHT22;6623;52.120;8.660;2024-02-23T10:07:56;20.80;45.30
13115;DHT22;6623;52.120;8.660;2024-02-23T10:10:45;20.80;45.30
13115;DHT22;6623;52.120;8.660;2024-02-23T10:13:11;20.80;45.30
13115;DHT22;6623;52.120;8.660;2024-02-23T10:15:37;20.80;45.30
13115;DHT22;6623;52.120;8.660;2024-02-23T10:18:02;20.80;45.30
13115;DHT22;6623;52.120;8.660;2024-02-23T10:20:28;20.80;45.40
13115;DHT22;6623;52.120;8.660;2024-02-23T10:22:54;20.80;45.40
13115;DHT22;6623;52.120;8.660;2024-02-23T10:25:20;20.80;45.40
13115;DHT22;6623;52.120;8.660;2024-02-23T10:27:45;20.80;45.40
13115;DHT22;6623;52.120;8.660;2024-02-23T10:30:11;20.80;45.40
13115;DHT22;6623;52.120;8.660;2024-02-23T10:32:38;20.80;45.60
13115;DHT22;6623;52.120;8.660;2024-02-23T10:35:11;20.80;45.70
13115;DHT22;6623;52.120;8.660;2024-02-23T10:37:38;20.80;45.70
13115;DHT22;6623;52.120;8.660;2024-02-23T10:40:06;20.80;45.70
13115;DHT22;6623;52.120;8.660;2024-02-23T10:42:37;20.90;45.90
13115;DHT22;6623;52.120;8.660;2024-02-23T10:45:04;20.80;45.90
13115;DHT22;6623;52.120;8.660;2024-02-23T10:47:31;20.90;45.90
13115;DHT22;6623;52.120;8.660;2024-02-23T10:50:00;20.90;45.90
13115;DHT22;6623;52.120;8.660;2024-02-23T10:52:26;20.90;46.00
13115;DHT22;6623;52.120;8.660;2024-02-23T10:54:52;20.90;46.00
13115;DHT22;6623;52.120;8.660;2024-02-23T10:57:18;20.90;46.00
13115;DHT22;6623;52.120;8.660;2024-02-23T10:59:47;20.90;46.10
13115;DHT22;6623;52.120;8.660;2024-02-23T11:02:15;20.90;46.10
13115;DHT22;6623;52.120;8.660;2024-02-23T11:04:47;20.90;46.20
13115;DHT22;6623;52.120;8.660;2024-02-23T11:07:17;20.90;46.20
13115;DHT22;6623;52.120;8.660;2024-02-23T11:09:52;20.80;46.20
13115;DHT22;6623;52.120;8.660;2024-02-23T11:12:25;20.80;46.30
13115;DHT22;6623;52.120;8.660;2024-02-23T11:14:51;20.90;46.30
13115;DHT22;6623;52.120;8.660;2024-02-23T11:17:21;20.90;46.30
13115;DHT22;6623;52.120;8.660;2024-02-23T11:19:49;20.90;46.30
13115;DHT22;6623;52.120;8.660;2024-02-23T11:22:24;20.80;46.30
13115;DHT22;6623;52.120;8.660;2024-02-23T11:24:50;20.80;46.30
13115;DHT22;6623;52.120;8.660;2024-02-23T11:27:16;20.80;46.30
13115;DHT22;6623;52.120;8.660;2024-02-23T11:29:47;20.90;46.30
13115;DHT22;6623;52.120;8.660;2024-02-23T11:32:16;20.90;46.30
13115;DHT22;6623;52.120;8.660;2024-02-23T11:34:53;20.80;46.30
13115;DHT22;6623;52.120;8.660;2024-02-23T11:37:20;20.90;46.40
13115;DHT22;6623;52.120;8.660;2024-02-23T11:39:45;20.80;46.30
13115;DHT22;6623;52.120;8.660;2024-02-23T11:42:12;20.80;46.30
13115;DHT22;6623;52.120;8.660;2024-02-23T11:44:37;20.80;46.30
13115;DHT22;6623;52.120;8.660;2024-02-23T11:47:03;20.80;46.30
13115;DHT22;6623;52.120;8.660;2024-02-23T11:49:29;20.80;46.30
13115;DHT22;6623;52.120;8.660;2024-02-23T11:51:55;20.80;46.30
13115;DHT22;6623;52.120;8.660;2024-02-23T11:54:22;20.80;46.30
13115;DHT22;6623;52.120;8.660;2024-02-23T11:56:48;20.80;46.30
13115;DHT22;6623;52.120;8.660;2024-02-23T11:59:15;20.80;46.30
13115;DHT22;6623;52.120;8.660;2024-02-23T12:01:41;20.80;46.30
13115;DHT22;6623;52.120;8.660;2024-02-23T12:04:07;20.80;46.30
13115;DHT22;6623;52.120;8.660;2024-02-23T12:06:33;20.80;46.30
13115;DHT22;6623;52.120;8.660;2024-02-23T12:08:59;20.80;46.30
13115;DHT22;6623;52.120;8.660;2024-02-23T12:11:26;20.80;46.30
13115;DHT22;6623;52.120;8.660;2024-02-23T12:13:52;20.80;46.30
13115;DHT22;6623;52.120;8.660;2024-02-23T12:16:18;20.80;46.30
13115;DHT22;6623;52.120;8.660;2024-02-23T12:18:53;20.80;46.30
13115;DHT22;6623;52.120;8.660;2024-02-23T12:21:18;20.80;46.30
13115;DHT22;6623;52.120;8.660;2024-02-23T12:23:49;20.80;46.30
13115;DHT22;6623;52.120;8.660;2024-02-23T12:26:16;20.80;46.30
13115;DHT22;6623;52.120;8.660;2024-02-23T12:28:42;20.80;46.30
13115;DHT22;6623;52.120;8.660;2024-02-23T12:31:08;20.80;46.40
13115;DHT22;6623;52.120;8.660;2024-02-23T12:33:36;20.80;46.30
13115;DHT22;6623;52.120;8.660;2024-02-23T12:36:03;20.80;47.00
13115;DHT22;6623;52.120;8.660;2024-02-23T12:38:29;20.80;46.30
13115;DHT22;6623;52.120;8.660;2024-02-23T12:40:55;20.80;46.30
13115;DHT22;6623;52.120;8.660;2024-02-23T12:43:21;20.80;46.30
13115;DHT22;6623;52.120;8.660;2024-02-23T12:45:48;20.80;46.30
13115;DHT22;6623;52.120;8.660;2024-02-23T12:48:15;20.80;46.40
13115;DHT22;6623;52.120;8.660;2024-02-23T12:50:41;20.80;46.30
13115;DHT22;6623;52.120;8.660;2024-02-23T12:53:08;20.80;46.30
13115;DHT22;6623;52.120;8.660;2024-02-23T12:55:33;20.80;46.30
13115;DHT22;6623;52.120;8.660;2024-02-23T12:58:28;20.80;46.30
13115;DHT22;6623;52.120;8.660;2024-02-23T13:00:57;20.80;46.30
13115;DHT22;6623;52.120;8.660;2024-02-23T13:03:24;20.80;46.40
13115;DHT22;6623;52.120;8.660;2024-02-23T13:05:53;20.80;46.40
13115;DHT22;6623;52.120;8.660;2024-02-23T13:08:18;20.80;46.30
13115;DHT22;6623;52.120;8.660;2024-02-23T13:10:44;20.80;46.30
13115;DHT22;6623;52.120;8.660;2024-02-23T13:13:10;20.80;46.30
13115;DHT22;6623;52.120;8.660;2024-02-23T13:15:35;20.80;47.00
13115;DHT22;6623;52.120;8.660;2024-02-23T13:18:03;20.80;46.30
13115;DHT22;6623;52.120;8.660;2024-02-23T13:20:29;20.80;46.30
13115;DHT22;6623;52.120;8.660;2024-02-23T13:22:54;20.80;46.30
13115;DHT22;6623;52.120;8.660;2024-02-23T13:25:21;20.80;46.30
13115;DHT22;6623;52.120;8.660;2024-02-23T13:27:46;20.80;46.30
13115;DHT22;6623;52.120;8.660;2024-02-23T13:30:12;20.80;46.30
13115;DHT22;6623;52.120;8.660;2024-02-23T13:32:38;20.80;46.30
13115;DHT22;6623;52.120;8.660;2024-02-23T13:35:04;20.80;46.30
13115;DHT22;6623;52.120;8.660;2024-02-23T13:37:31;20.80;46.30
13115;DHT22;6623;52.120;8.660;2024-02-23T13:39:57;20.80;46.30
13115;DHT22;6623;52.120;8.660;2024-02-23T13:42:23;20.80;46.30
13115;DHT22;6623;52.120;8.660;2024-02-23T13:44:48;20.80;46.30
13115;DHT22;6623;52.120;8.660;2024-02-23T13:47:14;20.80;46.50
13115;DHT22;6623;52.120;8.660;2024-02-23T13:49:39;20.80;46.30
13115;DHT22;6623;52.120;8.660;2024-02-23T13:52:05;20.80;46.30
13115;DHT22;6623;52.120;8.660;2024-02-23T13:54:31;20.80;46.30
13115;DHT22;6623;52.120;8.660;2024-02-23T13:56:56;20.80;46.30
13115;DHT22;6623;52.120;8.660;2024-02-23T13:59:22;20.70;46.20
13115;DHT22;6623;52.120;8.660;2024-02-23T14:01:47;20.70;46.30
13115;DHT22;6623;52.120;8.660;2024-02-23T14:04:13;20.70;46.20
13115;DHT22;6623;52.120;8.660;2024-02-23T14:06:38;20.70;46.20
13115;DHT22;6623;52.120;8.660;2024-02-23T14:09:04;20.70;46.20
13115;DHT22;6623;52.120;8.660;2024-02-23T14:11:30;20.70;46.20
13115;DHT22;6623;52.120;8.660;2024-02-23T14:13:56;20.70;46.40
13115;DHT22;6623;52.120;8.660;2024-02-23T14:16:22;20.70;46.30
13115;DHT22;6623;52.120;8.660;2024-02-23T14:18:49;20.70;46.90
13115;DHT22;6623;52.120;8.660;2024-02-23T14:21:15;20.70;46.30
13115;DHT22;6623;52.120;8.660;2024-02-23T14:23:41;20.70;46.20
13115;DHT22;6623;52.120;8.660;2024-02-23T14:26:07;20.80;46.30
13115;DHT22;6623;52.120;8.660;2024-02-23T14:28:32;20.70;46.20
13115;DHT22;6623;52.120;8.660;2024-02-23T14:30:58;20.70;46.20
13115;DHT22;6623;52.120;8.660;2024-02-23T14:33:24;20.70;46.20
13115;DHT22;6623;52.120;8.660;2024-02-23T14:35:49;20.70;46.20
13115;DHT22;6623;52.120;8.660;2024-02-23T14:38:15;20.70;46.20
13115;DHT22;6623;52.120;8.660;2024-02-23T14:40:42;20.70;46.20
13115;DHT22;6623;52.120;8.660;2024-02-23T14:43:07;20.70;46.20
13115;DHT22;6623;52.120;8.660;2024-02-23T14:45:33;20.70;46.20
13115;DHT22;6623;52.120;8.660;2024-02-23T14:47:58;20.70;46.20
13115;DHT22;6623;52.120;8.660;2024-02-23T14:50:24;20.70;46.20
13115;DHT22;6623;52.120;8.660;2024-02-23T14:52:50;20.70;46.20
13115;DHT22;6623;52.120;8.660;2024-02-23T14:55:16;20.70;46.20
13115;DHT22;6623;52.120;8.660;2024-02-23T14:57:42;20.70;46.20
13115;DHT22;6623;52.120;8.660;2024-02-23T15:00:08;20.70;46.20
13115;DHT22;6623;52.120;8.660;2024-02-23T15:02:33;20.70;46.20
13115;DHT22;6623;52.120;8.660;2024-02-23T15:04:59;20.70;46.20
13115;DHT22;6623;52.120;8.660;2024-02-23T15:07:25;20.70;46.20
13115;DHT22;6623;52.120;8.660;2024-02-23T15:09:50;20.70;46.20
13115;DHT22;6623;52.120;8.660;2024-02-23T15:12:15;20.70;46.20
13115;DHT22;6623;52.120;8.660;2024-02-23T15:14:41;20.70;46.20
13115;DHT22;6623;52.120;8.660;2024-02-23T15:17:07;20.70;46.20
13115;DHT22;6623;52.120;8.660;2024-02-23T15:19:33;20.70;46.20
13115;DHT22;6623;52.120;8.660;2024-02-23T15:21:58;20.70;46.20
13115;DHT22;6623;52.120;8.660;2024-02-23T15:24:24;20.70;46.20
13115;DHT22;6623;52.120;8.660;2024-02-23T15:26:50;20.70;46.20
13115;DHT22;6623;52.120;8.660;2024-02-23T15:29:15;20.70;46.10
13115;DHT22;6623;52.120;8.660;2024-02-23T15:31:41;20.70;46.20
13115;DHT22;6623;52.120;8.660;2024-02-23T15:34:08;20.70;46.20
13115;DHT22;6623;52.120;8.660;2024-02-23T15:36:33;20.70;46.10
13115;DHT22;6623;52.120;8.660;2024-02-23T15:38:59;20.70;46.20